Time;durP1;ratioP1;P1;durP2;ratioP2;P2;SDS_P1;SDS_P2;PMS_P1;PMS_P2;Temp;Humidity;BMP_temperature;BMP_pressure;BME280_temperature;BME280_humidity;BME280_pressure;Samples;Min_cycle;Max_cycle;Signal;HPM_P1;HPM_P2
2022/10/17 00:02:39;;;;;;;2.83;2.57;;;13.90;99.90;;;;;;5095265;28;20429;-69
2022/10/17 00:05:27;;;;;;;0.97;0.97;;;14.00;99.90;;;;;;5095500;28;20419;-68
2022/10/17 00:08:17;;;;;;;0.40;0.40;;;14.10;99.90;;;;;;5094485;28;20999;-69
2022/10/17 00:11:08;;;;;;;0.40;0.40;;;14.00;99.90;;;;;;5095132;28;20517;-69
2022/10/17 00:13:56;;;;;;;0.40;0.40;;;13.90;99.90;;;;;;5095283;28;20432;-69
2022/10/17 00:16:44;;;;;;;0.40;0.40;;;13.90;99.90;;;;;;5094537;28;20790;-68
2022/10/17 00:19:34;;;;;;;0.40;0.40;;;13.90;99.90;;;;;;5094922;28;20436;-68
2022/10/17 00:22:22;;;;;;;0.40;0.40;;;13.90;99.90;;;;;;5095887;28;20198;-68
2022/10/17 00:25:10;;;;;;;0.40;0.40;;;13.90;99.90;;;;;;5095646;28;20414;-68
2022/10/17 00:27:58;;;;;;;0.40;0.40;;;13.90;99.90;;;;;;5097264;28;20571;-69
2022/10/17 00:30:54;;;;;;;0.40;0.40;;;13.80;99.90;;;;;;5097133;28;20220;-68
2022/10/17 00:33:42;;;;;;;0.40;0.40;;;13.90;99.90;;;;;;5096195;28;20550;-69
2022/10/17 00:36:33;;;;;;;0.40;0.40;;;14.00;99.90;;;;;;5097762;28;20203;-69
2022/10/17 00:39:21;;;;;;;0.40;0.40;;;14.00;99.90;;;;;;5111635;28;20506;-68
2022/10/17 00:42:12;;;;;;;0.40;0.40;;;14.00;99.90;;;;;;5111683;28;20428;-70
2022/10/17 00:45:12;;;;;;;0.40;0.40;;;14.00;99.90;;;;;;5109858;28;20232;-69
2022/10/17 00:48:05;;;;;;;0.40;0.40;;;14.00;99.90;;;;;;5109759;28;20861;-69
2022/10/17 00:50:53;;;;;;;0.40;0.40;;;14.10;99.90;;;;;;5109826;28;20541;-69
2022/10/17 00:53:43;;;;;;;0.40;0.40;;;14.10;99.90;;;;;;5108555;28;20453;-69
2022/10/17 00:56:31;;;;;;;0.40;0.40;;;14.10;99.90;;;;;;5108463;28;20423;-69
2022/10/17 00:59:21;;;;;;;0.40;0.40;;;14.00;99.90;;;;;;5107952;28;20458;-68
2022/10/17 01:02:12;;;;;;;0.40;0.40;;;14.00;99.90;;;;;;5108839;28;20223;-69
2022/10/17 01:05:00;;;;;;;0.40;0.40;;;14.10;99.90;;;;;;5105704;28;20485;-69
2022/10/17 01:07:50;;;;;;;0.40;0.40;;;13.90;99.90;;;;;;5092957;28;20530;-68
2022/10/17 01:11:05;;;;;;;0.40;0.40;;;13.90;99.90;;;;;;5092400;28;20466;-67
2022/10/17 01:13:59;;;;;;;0.40;0.40;;;13.90;99.90;;;;;;5089313;28;20312;-67
2022/10/17 01:16:55;;;;;;;0.40;0.40;;;13.80;99.90;;;;;;5073242;28;20280;-68
2022/10/17 01:20:05;;;;;;;0.40;0.40;;;13.80;99.90;;;;;;5071242;28;20506;-68
2022/10/17 01:23:06;;;;;;;0.40;0.40;;;13.80;99.90;;;;;;5072053;28;20898;-69
2022/10/17 01:26:04;;;;;;;0.40;0.40;;;13.80;99.90;;;;;;5071286;28;20966;-69
2022/10/17 01:29:10;;;;;;;0.40;0.40;;;13.70;99.90;;;;;;5072909;28;20948;-69
2022/10/17 01:32:03;;;;;;;0.40;0.40;;;13.70;99.90;;;;;;5072036;28;20514;-69
2022/10/17 01:34:58;;;;;;;0.40;0.40;;;13.70;99.90;;;;;;5080301;28;20451;-69
2022/10/17 01:37:50;;;;;;;0.40;0.40;;;13.70;99.90;;;;;;5085329;28;20534;-69
2022/10/17 01:40:45;;;;;;;0.40;0.40;;;13.60;99.90;;;;;;5074703;28;20427;-68
2022/10/17 01:43:38;;;;;;;0.40;0.40;;;13.60;99.90;;;;;;5072488;28;20519;-68
2022/10/17 01:46:31;;;;;;;0.40;0.40;;;13.60;99.90;;;;;;5071504;28;20906;-68
2022/10/17 01:49:26;;;;;;;0.40;0.40;;;13.40;99.90;;;;;;5071902;28;20451;-68
2022/10/17 01:52:18;;;;;;;0.40;0.40;;;13.60;99.90;;;;;;5071687;28;20557;-68
2022/10/17 01:55:11;;;;;;;0.40;0.40;;;13.50;99.90;;;;;;5072052;28;21014;-68
2022/10/17 01:58:10;;;;;;;0.40;0.40;;;13.50;99.90;;;;;;5071021;28;20884;-68
2022/10/17 02:01:01;;;;;;;0.40;0.40;;;13.50;99.90;;;;;;5071881;28;20570;-68
2022/10/17 02:03:52;;;;;;;0.40;0.40;;;13.50;99.90;;;;;;5071992;28;20431;-69
2022/10/17 02:06:41;;;;;;;0.40;0.40;;;13.50;99.90;;;;;;5072439;28;20494;-69
2022/10/17 02:09:29;;;;;;;0.40;0.40;;;13.50;99.90;;;;;;5071261;28;20453;-69
2022/10/17 02:12:41;;;;;;;0.40;0.40;;;13.50;99.90;;;;;;5070674;28;20510;-68
2022/10/17 02:15:50;;;;;;;0.40;0.40;;;13.50;99.90;;;;;;5072218;28;20415;-68
2022/10/17 02:18:53;;;;;;;0.40;0.40;;;13.50;99.90;;;;;;5070457;28;20506;-68
2022/10/17 02:21:50;;;;;;;0.40;0.40;;;13.50;99.90;;;;;;5070122;28;20493;-69
2022/10/17 02:24:48;;;;;;;0.40;0.40;;;13.40;99.90;;;;;;5070952;28;20476;-69
2022/10/17 02:27:44;;;;;;;0.40;0.40;;;13.40;99.90;;;;;;5071687;28;20475;-69
2022/10/17 02:30:38;;;;;;;0.40;0.40;;;13.40;99.90;;;;;;5069995;28;21064;-69
2022/10/17 02:33:30;;;;;;;0.40;0.40;;;13.40;99.90;;;;;;5070365;28;20461;-69
2022/10/17 02:36:22;;;;;;;0.40;0.40;;;13.40;99.90;;;;;;5071604;28;20474;-69
2022/10/17 02:39:13;;;;;;;0.40;0.40;;;13.40;99.90;;;;;;5070628;28;20447;-69
2022/10/17 02:42:05;;;;;;;0.73;0.73;;;13.40;99.90;;;;;;5070938;28;20465;-69
2022/10/17 02:44:55;;;;;;;0.40;0.40;;;13.40;99.90;;;;;;5070735;28;20430;-69
2022/10/17 02:47:51;;;;;;;0.40;0.40;;;13.40;99.90;;;;;;5069686;28;20450;-69
2022/10/17 02:50:48;;;;;;;0.40;0.40;;;13.50;99.90;;;;;;5078446;28;20462;-69
2022/10/17 02:53:41;;;;;;;0.40;0.40;;;13.50;99.90;;;;;;5091299;28;20426;-69
2022/10/17 02:56:36;;;;;;;0.40;0.40;;;13.50;99.90;;;;;;5091772;28;21076;-68
2022/10/17 02:59:27;;;;;;;0.50;0.50;;;13.50;99.90;;;;;;5088509;22;20500;-69
2022/10/17 03:02:15;;;;;;;0.40;0.40;;;13.50;99.90;;;;;;5052661;28;20518;-74
2022/10/17 03:05:03;;;;;;;0.40;0.40;;;13.50;99.90;;;;;;5051834;28;20787;-73
2022/10/17 03:07:52;;;;;;;0.40;0.40;;;13.70;99.90;;;;;;5051129;28;20504;-73
2022/10/17 03:10:40;;;;;;;0.40;0.40;;;13.60;99.90;;;;;;5052221;28;20455;-71
2022/10/17 03:13:30;;;;;;;0.40;0.40;;;13.60;99.90;;;;;;5032875;28;20416;-70
2022/10/17 03:16:22;;;;;;;0.40;0.40;;;13.60;99.90;;;;;;5031980;28;20516;-73
2022/10/17 03:19:10;;;;;;;0.40;0.40;;;13.70;99.90;;;;;;5031092;28;20900;-70
2022/10/17 03:21:58;;;;;;;0.40;0.40;;;13.60;99.90;;;;;;5049519;28;21093;-71
2022/10/17 03:24:46;;;;;;;0.40;0.40;;;13.60;99.90;;;;;;5051614;28;20420;-70
2022/10/17 03:27:34;;;;;;;0.40;0.40;;;13.60;99.90;;;;;;5050926;28;20433;-70
2022/10/17 03:30:23;;;;;;;0.40;0.40;;;13.60;99.90;;;;;;5050840;28;20421;-71
2022/10/17 03:33:11;;;;;;;0.40;0.40;;;13.60;99.90;;;;;;5051185;28;20547;-71
2022/10/17 03:35:59;;;;;;;0.40;0.40;;;13.60;99.90;;;;;;5051011;28;20428;-73
2022/10/17 03:38:48;;;;;;;0.40;0.40;;;13.60;99.90;;;;;;5050972;28;20444;-70
2022/10/17 03:41:36;;;;;;;0.40;0.40;;;13.60;99.90;;;;;;5050747;28;20469;-70
2022/10/17 03:44:24;;;;;;;0.40;0.40;;;13.60;99.90;;;;;;5051033;28;20498;-71
2022/10/17 03:47:13;;;;;;;0.40;0.40;;;13.60;99.90;;;;;;5050575;28;20420;-69
2022/10/17 03:50:01;;;;;;;0.40;0.40;;;13.70;99.90;;;;;;5055091;28;20835;-73
2022/10/17 03:52:50;;;;;;;0.40;0.40;;;13.70;99.90;;;;;;5074069;28;20498;-70
2022/10/17 03:55:38;;;;;;;0.40;0.40;;;13.70;99.90;;;;;;5073389;28;20882;-70
2022/10/17 03:58:26;;;;;;;0.40;0.40;;;13.70;99.90;;;;;;5073357;28;21066;-70
2022/10/17 04:01:16;;;;;;;0.40;0.40;;;13.80;99.90;;;;;;5073214;28;20499;-72
2022/10/17 04:04:05;;;;;;;0.40;0.40;;;13.80;99.90;;;;;;5073975;28;20470;-70
2022/10/17 04:06:54;;;;;;;0.40;0.40;;;13.80;99.90;;;;;;5073496;28;20958;-70
2022/10/17 04:09:42;;;;;;;0.40;0.40;;;13.80;99.90;;;;;;5073246;28;20655;-71
2022/10/17 04:12:30;;;;;;;0.40;0.40;;;13.70;99.90;;;;;;5073538;28;20220;-70
2022/10/17 04:15:18;;;;;;;0.60;0.60;;;13.70;99.90;;;;;;5073574;28;20205;-71
2022/10/17 04:18:07;;;;;;;0.40;0.40;;;13.70;99.90;;;;;;5072886;28;20767;-71
2022/10/17 04:20:56;;;;;;;0.40;0.40;;;13.60;99.90;;;;;;5072823;28;20912;-70
2022/10/17 04:23:44;;;;;;;0.40;0.40;;;13.60;99.90;;;;;;5073253;28;20279;-70
2022/10/17 04:26:32;;;;;;;0.40;0.40;;;13.60;99.90;;;;;;5073201;28;20423;-71
2022/10/17 04:29:21;;;;;;;0.50;0.50;;;13.50;99.90;;;;;;5072916;28;20528;-71
2022/10/17 04:32:09;;;;;;;0.40;0.40;;;13.50;99.90;;;;;;5073177;28;20506;-72
2022/10/17 04:34:57;;;;;;;0.40;0.40;;;13.50;99.90;;;;;;5072781;28;20538;-73
2022/10/17 04:37:46;;;;;;;0.40;0.40;;;13.50;99.90;;;;;;5073385;28;20518;-73
2022/10/17 04:40:34;;;;;;;0.40;0.40;;;13.50;99.90;;;;;;5072628;28;20508;-71
2022/10/17 04:43:22;;;;;;;0.40;0.40;;;13.50;99.90;;;;;;5073377;28;20419;-71
2022/10/17 04:46:12;;;;;;;0.40;0.40;;;13.50;99.90;;;;;;5072775;28;20600;-70
2022/10/17 04:49:00;;;;;;;0.40;0.40;;;13.50;99.90;;;;;;5072566;28;20450;-70
2022/10/17 04:51:48;;;;;;;0.40;0.40;;;13.40;99.90;;;;;;5055118;28;20979;-70
2022/10/17 04:54:37;;;;;;;0.40;0.40;;;13.40;99.90;;;;;;5053204;28;20569;-73
2022/10/17 04:57:26;;;;;;;0.40;0.40;;;13.40;99.90;;;;;;5053145;28;20522;-73
2022/10/17 05:00:14;;;;;;;0.40;0.40;;;13.40;99.90;;;;;;5052294;28;20952;-68
2022/10/17 05:03:02;;;;;;;0.40;0.40;;;13.40;99.90;;;;;;5053321;28;20542;-70
2022/10/17 05:05:51;;;;;;;0.40;0.40;;;13.40;99.90;;;;;;5053419;28;20858;-70
2022/10/17 05:08:40;;;;;;;0.40;0.40;;;13.60;99.90;;;;;;5052552;28;20477;-72
2022/10/17 05:11:30;;;;;;;0.40;0.40;;;13.40;99.90;;;;;;5053137;28;20594;-72
2022/10/17 05:14:18;;;;;;;0.40;0.40;;;13.30;99.90;;;;;;5053373;28;20526;-70
2022/10/17 05:17:06;;;;;;;0.40;0.40;;;13.30;99.90;;;;;;5052582;28;20511;-71
2022/10/17 05:19:54;;;;;;;0.40;0.40;;;13.40;99.90;;;;;;5052893;28;20462;-70
2022/10/17 05:22:42;;;;;;;0.40;0.40;;;13.40;99.90;;;;;;5052305;28;20496;-70
2022/10/17 05:25:30;;;;;;;2.30;2.20;;;13.30;99.90;;;;;;5052951;28;21070;-71
2022/10/17 05:28:20;;;;;;;2.87;2.77;;;13.30;99.90;;;;;;5053217;28;20522;-70
2022/10/17 05:31:09;;;;;;;0.40;0.40;;;13.30;99.90;;;;;;5052384;28;20424;-70
2022/10/17 05:34:00;;;;;;;0.40;0.40;;;13.30;99.90;;;;;;5052813;28;20527;-70
2022/10/17 05:36:48;;;;;;;0.40;0.40;;;13.30;99.90;;;;;;5052625;28;20786;-70
2022/10/17 05:39:36;;;;;;;0.40;0.40;;;13.30;99.90;;;;;;5052244;28;20870;-71
2022/10/17 05:42:25;;;;;;;0.40;0.40;;;13.30;99.90;;;;;;5051646;28;20578;-71
2022/10/17 05:45:15;;;;;;;0.40;0.40;;;13.30;99.90;;;;;;5052449;28;20504;-72
2022/10/17 05:48:03;;;;;;;0.40;0.40;;;13.20;99.90;;;;;;5050652;28;20444;-71
2022/10/17 05:50:58;;;;;;;0.40;0.40;;;13.30;99.90;;;;;;5060545;28;20429;-70
2022/10/17 05:53:47;;;;;;;0.40;0.40;;;13.30;99.90;;;;;;5071343;28;20528;-71
2022/10/17 05:56:35;;;;;;;0.40;0.40;;;13.30;99.90;;;;;;5052698;28;20566;-72
2022/10/17 05:59:25;;;;;;;0.50;0.50;;;13.30;99.90;;;;;;5051507;28;20496;-71
2022/10/17 06:02:14;;;;;;;0.40;0.40;;;13.40;99.90;;;;;;5051296;28;20916;-72
2022/10/17 06:05:02;;;;;;;0.40;0.40;;;13.40;99.90;;;;;;5051060;28;20828;-71
2022/10/17 06:07:51;;;;;;;0.40;0.40;;;13.40;99.90;;;;;;5051706;28;20439;-71
2022/10/17 06:10:39;;;;;;;0.40;0.40;;;13.40;99.90;;;;;;5050053;28;20420;-73
2022/10/17 06:13:27;;;;;;;0.40;0.40;;;13.50;99.90;;;;;;5043312;28;21209;-71
2022/10/17 06:16:16;;;;;;;0.40;0.40;;;13.50;99.90;;;;;;5052799;28;20440;-73
2022/10/17 06:19:05;;;;;;;0.40;0.40;;;13.60;99.90;;;;;;5058422;28;20538;-72
2022/10/17 06:21:53;;;;;;;0.40;0.40;;;13.60;99.90;;;;;;5036422;28;20452;-70
2022/10/17 06:24:42;;;;;;;0.40;0.40;;;13.70;99.90;;;;;;5049812;28;20958;-70
2022/10/17 06:27:30;;;;;;;0.40;0.40;;;13.70;99.90;;;;;;5050705;28;20927;-71
2022/10/17 06:30:18;;;;;;;0.40;0.40;;;13.70;99.90;;;;;;5050984;28;20482;-70
2022/10/17 06:33:06;;;;;;;0.40;0.40;;;13.70;99.90;;;;;;5039335;28;20614;-70
2022/10/17 06:35:56;;;;;;;0.40;0.40;;;13.80;99.90;;;;;;5051245;28;20424;-72
2022/10/17 06:38:44;;;;;;;0.40;0.40;;;13.80;99.90;;;;;;5037712;28;20503;-73
2022/10/17 06:41:32;;;;;;;0.40;0.40;;;13.90;99.90;;;;;;5070587;28;20807;-71
2022/10/17 06:44:21;;;;;;;0.40;0.40;;;14.00;99.90;;;;;;5051547;28;20988;-70
2022/10/17 06:47:10;;;;;;;0.40;0.40;;;14.00;99.90;;;;;;5050856;28;20474;-71
2022/10/17 06:49:59;;;;;;;0.40;0.40;;;14.10;99.90;;;;;;5050441;28;20448;-73
2022/10/17 06:52:50;;;;;;;0.40;0.40;;;14.10;99.90;;;;;;5070075;28;20517;-70
2022/10/17 06:55:38;;;;;;;0.40;0.40;;;14.20;99.90;;;;;;5070963;28;20522;-71
2022/10/17 06:58:27;;;;;;;0.40;0.40;;;14.20;99.90;;;;;;5070817;28;20463;-70
2022/10/17 07:01:15;;;;;;;0.40;0.40;;;14.20;99.90;;;;;;5070634;28;21008;-71
2022/10/17 07:04:03;;;;;;;0.40;0.40;;;14.30;99.90;;;;;;5070108;28;20666;-70
2022/10/17 07:06:51;;;;;;;0.50;0.50;;;14.40;99.90;;;;;;5070374;28;20459;-71
2022/10/17 07:09:40;;;;;;;0.40;0.40;;;14.40;99.90;;;;;;5070078;28;20824;-72
2022/10/17 07:12:29;;;;;;;0.40;0.40;;;14.50;99.90;;;;;;5070589;28;20543;-69
2022/10/17 07:15:17;;;;;;;0.40;0.40;;;14.50;99.90;;;;;;5070531;28;20584;-71
2022/10/17 07:18:05;;;;;;;0.40;0.40;;;14.50;99.90;;;;;;5069916;28;20961;-71
2022/10/17 07:20:54;;;;;;;0.40;0.40;;;14.60;99.90;;;;;;5070564;28;20513;-71
2022/10/17 07:23:42;;;;;;;0.40;0.40;;;14.60;99.90;;;;;;5070246;28;20506;-70
2022/10/17 07:26:31;;;;;;;0.40;0.40;;;14.70;99.90;;;;;;5060810;28;20759;-72
2022/10/17 07:29:19;;;;;;;0.50;0.50;;;15.10;99.90;;;;;;5053900;28;20881;-70
2022/10/17 07:32:08;;;;;;;0.40;0.40;;;14.90;99.90;;;;;;5054178;28;20209;-71
2022/10/17 07:34:56;;;;;;;0.40;0.40;;;14.90;99.90;;;;;;5054705;28;20275;-72
2022/10/17 07:37:44;;;;;;;0.40;0.40;;;15.00;99.90;;;;;;5054507;28;20280;-71
2022/10/17 07:40:32;;;;;;;0.40;0.40;;;15.10;99.90;;;;;;5054446;28;20249;-70
2022/10/17 07:43:22;;;;;;;0.40;0.40;;;15.20;99.90;;;;;;5050458;28;20270;-70
2022/10/17 07:46:11;;;;;;;0.40;0.40;;;15.30;99.90;;;;;;5054897;28;20201;-70
2022/10/17 07:48:59;;;;;;;0.40;0.40;;;15.40;99.90;;;;;;5051868;28;20723;-68
2022/10/17 07:51:47;;;;;;;0.40;0.40;;;15.50;99.90;;;;;;5035723;28;20670;-69
2022/10/17 07:54:35;;;;;;;0.40;0.40;;;15.60;99.90;;;;;;5033876;28;20492;-69
2022/10/17 07:57:24;;;;;;;0.40;0.40;;;15.70;99.90;;;;;;5034256;28;20278;-70
2022/10/17 08:00:14;;;;;;;0.50;0.50;;;15.80;99.90;;;;;;5033661;28;20277;-69
2022/10/17 08:03:02;;;;;;;0.40;0.40;;;15.90;99.90;;;;;;5034695;28;20277;-70
2022/10/17 08:05:50;;;;;;;0.40;0.40;;;16.00;99.90;;;;;;5033925;28;20245;-69
2022/10/17 08:08:38;;;;;;;0.40;0.40;;;16.10;99.90;;;;;;5034616;28;20218;-70
2022/10/17 08:11:26;;;;;;;0.40;0.40;;;16.30;99.90;;;;;;5034293;28;20198;-70
2022/10/17 08:14:15;;;;;;;0.40;0.40;;;16.30;99.90;;;;;;5065480;28;20312;-70
2022/10/17 08:17:05;;;;;;;0.40;0.40;;;16.40;99.90;;;;;;5056158;28;20284;-71
2022/10/17 08:19:53;;;;;;;0.40;0.40;;;16.50;99.90;;;;;;5053914;28;20257;-70
2022/10/17 08:22:41;;;;;;;0.40;0.40;;;16.50;99.90;;;;;;5053643;28;20282;-70
2022/10/17 08:25:29;;;;;;;0.40;0.40;;;16.60;99.90;;;;;;5053470;28;20419;-70
2022/10/17 08:28:17;;;;;;;0.40;0.40;;;16.70;99.90;;;;;;5063562;28;20301;-71
2022/10/17 08:31:08;;;;;;;0.40;0.40;;;16.80;99.90;;;;;;5073704;28;20285;-69
2022/10/17 08:33:57;;;;;;;0.40;0.40;;;16.80;99.90;;;;;;5073691;28;20359;-71
2022/10/17 08:36:45;;;;;;;0.40;0.40;;;16.90;99.90;;;;;;5073055;28;20284;-70
2022/10/17 08:39:33;;;;;;;0.40;0.40;;;17.00;99.90;;;;;;5073249;28;20357;-70
2022/10/17 08:42:39;;;;;;;0.40;0.40;;;17.00;99.90;;;;;;5073024;28;20279;-71
2022/10/17 08:45:32;;;;;;;0.40;0.40;;;17.10;99.90;;;;;;5073762;28;20199;-70
2022/10/17 08:48:25;;;;;;;0.40;0.40;;;17.20;99.90;;;;;;5073514;28;20252;-71
2022/10/17 08:51:18;;;;;;;0.40;0.40;;;17.30;99.90;;;;;;5072827;28;20338;-72
2022/10/17 08:54:14;;;;;;;0.40;0.40;;;17.40;99.90;;;;;;5052364;28;20308;-70
2022/10/17 08:57:02;;;;;;;0.40;0.40;;;17.50;99.90;;;;;;5053320;28;20193;-70
2022/10/17 08:59:53;;;;;;;0.40;0.40;;;17.60;99.90;;;;;;5053121;28;20717;-69
2022/10/17 09:02:54;;;;;;;0.40;0.40;;;17.60;99.90;;;;;;5051564;28;20197;-73
2022/10/17 09:05:50;;;;;;;0.40;0.40;;;17.70;99.90;;;;;;5052641;28;20560;-70
2022/10/17 09:08:56;;;;;;;0.40;0.40;;;17.80;99.90;;;;;;5051156;28;20221;-69
2022/10/17 09:12:00;;;;;;;0.40;0.40;;;17.90;99.90;;;;;;5052964;28;20207;-70
2022/10/17 09:15:06;;;;;;;0.40;0.40;;;18.00;99.90;;;;;;5052917;28;20362;-69
2022/10/17 09:17:58;;;;;;;0.40;0.40;;;18.20;99.90;;;;;;5051212;28;20204;-72
2022/10/17 09:20:51;;;;;;;0.40;0.40;;;18.20;99.90;;;;;;5052086;28;20670;-70
2022/10/17 09:23:46;;;;;;;0.40;0.40;;;18.30;99.90;;;;;;5038851;28;20198;-69
2022/10/17 09:26:35;;;;;;;0.40;0.40;;;18.40;99.90;;;;;;5052552;28;20280;-68
2022/10/17 09:29:25;;;;;;;0.50;0.50;;;18.50;99.90;;;;;;5070184;28;20577;-70
2022/10/17 09:32:24;;;;;;;0.40;0.40;;;18.50;99.90;;;;;;5052683;28;20592;-69
2022/10/17 09:35:14;;;;;;;0.40;0.40;;;18.60;99.90;;;;;;5052712;28;20324;-68
2022/10/17 09:38:02;;;;;;;0.40;0.40;;;18.70;99.90;;;;;;5053125;28;20231;-68
2022/10/17 09:40:55;;;;;;;0.40;0.40;;;18.80;99.90;;;;;;5052414;28;20277;-67
2022/10/17 09:43:46;;;;;;;0.40;0.40;;;18.80;99.90;;;;;;5034216;28;20638;-68
2022/10/17 09:46:37;;;;;;;0.40;0.40;;;18.90;99.90;;;;;;5033729;28;20198;-68
2022/10/17 09:49:34;;;;;;;0.50;0.50;;;19.10;99.90;;;;;;5033759;28;20793;-68
2022/10/17 09:52:27;;;;;;;0.40;0.40;;;19.20;99.90;;;;;;5034411;28;20281;-70
2022/10/17 09:55:20;;;;;;;0.40;0.40;;;19.30;99.90;;;;;;5034287;28;20210;-68
2022/10/17 09:58:10;;;;;;;0.40;0.40;;;19.40;99.90;;;;;;5033229;28;20233;-68
2022/10/17 10:01:16;;;;;;;0.40;0.40;;;19.50;99.90;;;;;;5034001;28;20206;-67
2022/10/17 10:04:12;;;;;;;0.40;0.40;;;19.70;99.90;;;;;;5034499;28;20198;-67
2022/10/17 10:07:03;;;;;;;0.40;0.40;;;19.90;99.90;;;;;;5034478;28;20690;-68
2022/10/17 10:09:52;;;;;;;0.40;0.40;;;20.00;99.90;;;;;;5052576;28;20791;-68
2022/10/17 10:12:40;;;;;;;0.40;0.40;;;20.10;99.90;;;;;;5050395;28;20257;-68
2022/10/17 10:15:36;;;;;;;0.40;0.40;;;20.10;99.90;;;;;;5051932;28;20259;-68
2022/10/17 10:18:35;;;;;;;0.40;0.40;;;20.20;99.90;;;;;;5050627;28;20224;-67
2022/10/17 10:21:25;;;;;;;0.40;0.40;;;20.10;99.90;;;;;;5050633;28;20318;-68
2022/10/17 10:24:13;;;;;;;0.40;0.40;;;20.10;99.90;;;;;;5050664;28;20346;-68
2022/10/17 10:27:03;;;;;;;0.40;0.40;;;20.20;99.90;;;;;;5052544;28;20201;-67
2022/10/17 10:29:53;;;;;;;0.40;0.40;;;20.30;99.90;;;;;;5049537;28;20232;-67
2022/10/17 10:32:47;;;;;;;0.40;0.40;;;20.40;99.90;;;;;;5048855;28;20238;-68
2022/10/17 10:35:36;;;;;;;0.40;0.40;;;20.50;99.90;;;;;;5051971;28;20236;-68
2022/10/17 10:38:25;;;;;;;2.85;2.70;;;20.60;99.90;;;;;;5053646;28;20217;-68
2022/10/17 10:41:13;;;;;;;0.40;0.40;;;20.60;99.90;;;;;;5052218;28;20684;-68
2022/10/17 10:44:02;;;;;;;0.50;0.50;;;20.70;99.90;;;;;;5052624;28;20255;-69
2022/10/17 10:47:06;;;;;;;0.40;0.40;;;20.70;99.90;;;;;;5054069;28;20205;-68
2022/10/17 10:50:17;;;;;;;0.52;0.52;;;20.80;99.90;;;;;;5051242;28;20695;-68
2022/10/17 10:53:15;;;;;;;0.40;0.40;;;20.90;99.90;;;;;;5052054;28;20201;-69
2022/10/17 10:56:08;;;;;;;0.40;0.40;;;21.00;99.90;;;;;;5052685;28;20228;-68
2022/10/17 10:59:01;;;;;;;0.40;0.40;;;21.00;99.90;;;;;;5053357;28;20693;-68
2022/10/17 11:01:54;;;;;;;0.40;0.40;;;21.10;99.90;;;;;;5056460;28;20284;-68
2022/10/17 11:04:47;;;;;;;0.40;0.40;;;21.00;99.90;;;;;;5055819;28;20295;-69
2022/10/17 11:07:41;;;;;;;0.40;0.40;;;21.30;99.90;;;;;;5056860;28;20598;-68
2022/10/17 11:10:37;;;;;;;0.40;0.40;;;21.30;99.90;;;;;;5056528;28;20632;-69
2022/10/17 11:13:30;;;;;;;0.40;0.40;;;21.40;99.90;;;;;;5054935;28;20209;-68
2022/10/17 11:16:28;;;;;;;0.43;0.43;;;21.40;99.90;;;;;;5056411;28;20245;-68
2022/10/17 11:19:24;;;;;;;0.40;0.40;;;21.40;99.90;;;;;;5058651;28;20351;-67
2022/10/17 11:22:16;;;;;;;0.40;0.40;;;21.40;99.90;;;;;;5055478;28;20205;-68
2022/10/17 11:25:16;;;;;;;0.40;0.40;;;21.50;99.90;;;;;;5056376;28;20189;-69
2022/10/17 11:28:12;;;;;;;0.40;0.40;;;21.50;99.90;;;;;;5065035;28;20219;-68
2022/10/17 11:31:05;;;;;;;0.40;0.40;;;21.50;99.90;;;;;;5076157;28;20581;-69
2022/10/17 11:33:59;;;;;;;0.40;0.40;;;21.60;99.90;;;;;;5075647;28;20696;-68
2022/10/17 11:36:52;;;;;;;0.50;0.50;;;21.60;99.90;;;;;;5073926;28;20207;-68
2022/10/17 11:39:47;;;;;;;0.40;0.40;;;21.70;99.90;;;;;;5075673;28;20292;-69
2022/10/17 11:42:46;;;;;;;0.40;0.40;;;21.80;99.90;;;;;;5070090;28;20197;-67
2022/10/17 11:45:40;;;;;;;0.40;0.40;;;21.90;99.90;;;;;;5055503;28;20212;-69
2022/10/17 11:48:34;;;;;;;0.40;0.40;;;21.90;99.90;;;;;;5055591;28;20244;-69
2022/10/17 11:51:22;;;;;;;0.40;0.40;;;22.00;99.90;;;;;;5054771;28;20585;-69
2022/10/17 11:54:35;;;;;;;0.40;0.40;;;22.10;99.90;;;;;;5056557;28;20274;-68
2022/10/17 11:57:42;;;;;;;0.40;0.40;;;22.10;99.90;;;;;;5056830;28;20201;-69
2022/10/17 12:00:42;;;;;;;1.73;0.60;;;22.20;99.90;;;;;;5055926;28;20277;-68
2022/10/17 12:03:49;;;;;;;0.40;0.40;;;22.20;99.90;;;;;;5056983;28;20212;-68
2022/10/17 12:06:47;;;;;;;0.40;0.40;;;22.30;99.90;;;;;;5054352;28;20243;-68
2022/10/17 12:09:42;;;;;;;0.40;0.40;;;22.30;99.90;;;;;;5055044;28;20351;-69
2022/10/17 12:12:32;;;;;;;0.40;0.40;;;22.30;99.90;;;;;;5056411;28;20198;-68
2022/10/17 12:15:32;;;;;;;0.40;0.40;;;22.40;99.90;;;;;;5054396;28;20713;-69
2022/10/17 12:18:24;;;;;;;0.40;0.40;;;22.40;99.90;;;;;;5054714;28;20217;-68
2022/10/17 12:21:12;;;;;;;0.40;0.40;;;22.50;99.90;;;;;;5055600;28;20231;-68
2022/10/17 12:24:00;;;;;;;0.40;0.40;;;22.50;99.90;;;;;;5054738;28;20289;-68
2022/10/17 12:26:49;;;;;;;0.40;0.40;;;22.60;99.90;;;;;;5055930;28;20283;-68
2022/10/17 12:29:40;;;;;;;0.40;0.40;;;22.60;99.90;;;;;;5035694;28;20309;-69
2022/10/17 12:32:30;;;;;;;0.40;0.40;;;22.70;99.90;;;;;;5035157;28;20205;-68
2022/10/17 12:35:39;;;;;;;0.40;0.40;;;22.80;99.90;;;;;;5035590;28;20225;-68
2022/10/17 12:38:27;;;;;;;0.40;0.40;;;22.90;99.90;;;;;;5053703;28;20225;-68
2022/10/17 12:41:16;;;;;;;0.40;0.40;;;22.90;99.90;;;;;;5053856;28;20225;-67
2022/10/17 12:44:37;;;;;;;0.40;0.40;;;23.00;99.90;;;;;;5055416;28;20726;-68
2022/10/17 12:47:37;;;;;;;0.40;0.40;;;23.10;99.90;;;;;;5067383;28;20270;-68
2022/10/17 12:51:00;;;;;;;1.52;1.42;;;23.20;99.90;;;;;;5074550;28;20204;-68
2022/10/17 12:54:14;;;;;;;1.80;1.13;;;23.20;99.90;;;;;;5034850;28;20198;-69
2022/10/17 12:57:03;;;;;;;0.40;0.40;;;23.20;99.90;;;;;;5035866;28;20229;-68
2022/10/17 12:59:53;;;;;;;0.40;0.40;;;23.20;99.90;;;;;;5034678;28;20222;-68
2022/10/17 13:02:46;;;;;;;0.40;0.40;;;23.20;99.90;;;;;;5035607;28;20685;-68
2022/10/17 13:05:37;;;;;;;0.40;0.40;;;23.30;99.90;;;;;;5035114;28;20272;-69
2022/10/17 13:08:28;;;;;;;0.40;0.40;;;23.40;99.90;;;;;;5035820;28;20295;-68
2022/10/17 13:11:23;;;;;;;0.40;0.40;;;23.50;99.90;;;;;;5034442;28;20202;-68
2022/10/17 13:14:13;;;;;;;0.40;0.40;;;23.50;99.90;;;;;;5035064;28;20313;-67
2022/10/17 13:17:05;;;;;;;0.40;0.40;;;23.60;99.90;;;;;;5035892;28;20221;-67
2022/10/17 13:19:53;;;;;;;0.40;0.40;;;23.70;99.90;;;;;;5054001;28;20232;-68
2022/10/17 13:22:44;;;;;;;0.40;0.40;;;23.70;99.90;;;;;;5050506;28;20280;-68
2022/10/17 13:25:33;;;;;;;0.40;0.40;;;23.80;99.90;;;;;;5054113;28;20204;-68
2022/10/17 13:28:27;;;;;;;0.40;0.40;;;23.70;99.90;;;;;;5054547;28;20224;-68
2022/10/17 13:31:29;;;;;;;0.40;0.40;;;23.60;99.90;;;;;;5053298;28;20197;-68
2022/10/17 13:34:21;;;;;;;0.40;0.40;;;23.50;99.90;;;;;;5055262;28;20589;-67
2022/10/17 13:37:13;;;;;;;0.40;0.40;;;23.50;99.90;;;;;;5054699;28;20240;-68
2022/10/17 13:40:02;;;;;;;0.40;0.40;;;23.50;99.90;;;;;;5053246;28;20951;-67
2022/10/17 13:43:16;;;;;;;0.40;0.40;;;23.80;99.90;;;;;;5054923;28;20205;-68
2022/10/17 13:46:04;;;;;;;0.40;0.40;;;23.90;99.90;;;;;;5054334;28;20235;-68
2022/10/17 13:49:20;;;;;;;0.40;0.40;;;24.00;99.90;;;;;;5054211;28;20304;-68
2022/10/17 13:52:17;;;;;;;0.40;0.40;;;24.10;99.90;;;;;;5053366;28;20197;-68
2022/10/17 13:55:12;;;;;;;0.40;0.40;;;24.50;99.90;;;;;;5052327;28;20276;-68
2022/10/17 13:58:15;;;;;;;0.40;0.40;;;25.10;99.90;;;;;;5053232;28;20224;-68
2022/10/17 14:01:04;;;;;;;0.40;0.40;;;25.60;99.90;;;;;;5052101;28;20229;-69
2022/10/17 14:03:52;;;;;;;0.40;0.40;;;25.60;99.90;;;;;;5052284;28;20705;-68
2022/10/17 14:06:56;;;;;;;0.40;0.40;;;25.70;99.90;;;;;;5052747;28;20193;-68
2022/10/17 14:09:46;;;;;;;0.40;0.40;;;25.70;99.90;;;;;;5052550;28;20268;-69
2022/10/17 14:12:34;;;;;;;0.40;0.40;;;25.70;99.90;;;;;;5051238;28;20727;-69
2022/10/17 14:15:26;;;;;;;0.35;0.35;;;25.80;99.90;;;;;;5052140;28;20201;-69
2022/10/17 14:18:19;;;;;;;0.40;0.40;;;26.10;99.90;;;;;;5052025;28;20221;-69
2022/10/17 14:21:07;;;;;;;0.40;0.40;;;26.40;99.90;;;;;;5052120;28;20201;-69
2022/10/17 14:24:28;;;;;;;0.30;0.30;;;26.60;99.90;;;;;;5051632;28;20197;-70
2022/10/17 14:27:28;;;;;;;0.40;0.40;;;27.00;99.90;;;;;;5045473;28;20221;-69
2022/10/17 14:30:34;;;;;;;0.40;0.40;;;27.00;99.90;;;;;;5050435;28;20224;-70
2022/10/17 14:33:45;;;;;;;0.40;0.40;;;26.90;99.90;;;;;;5051913;28;20206;-69
2022/10/17 14:36:40;;;;;;;0.40;0.40;;;26.50;99.90;;;;;;5051742;28;20232;-70
2022/10/17 14:39:30;;;;;;;0.40;0.40;;;26.00;99.90;;;;;;5049745;28;20217;-70
2022/10/17 14:42:20;;;;;;;0.40;0.40;;;25.50;99.90;;;;;;5052070;28;20201;-69
2022/10/17 14:45:14;;;;;;;0.40;0.40;;;25.10;99.90;;;;;;5052120;28;20208;-69
2022/10/17 14:48:12;;;;;;;0.40;0.40;;;24.70;99.90;;;;;;5053108;28;20353;-70
2022/10/17 14:51:07;;;;;;;0.40;0.40;;;24.50;99.90;;;;;;5052531;28;20204;-70
2022/10/17 14:54:19;;;;;;;0.40;0.40;;;24.30;99.90;;;;;;5052131;28;20201;-70
2022/10/17 14:57:17;;;;;;;0.40;0.40;;;24.20;99.90;;;;;;5052749;28;20217;-69
2022/10/17 15:00:06;;;;;;;0.40;0.40;;;24.10;99.90;;;;;;5052112;28;20772;-70